Time;durP1;ratioP1;P1;durP2;ratioP2;P2;SDS_P1;SDS_P2;PMS_P1;PMS_P2;Temp;Humidity;BMP_temperature;BMP_pressure;BME280_temperature;BME280_humidity;BME280_pressure;Samples;Min_cycle;Max_cycle;Signal;HPM_P1;HPM_P2
2022/02/22 00:00:16;;;;;;;0.20;0.20;;;;;;;7.97;62.50;98414.44;5008328;28;20303;-77
2022/02/22 00:02:50;;;;;;;0.20;0.17;;;;;;;8.03;62.68;98402.00;5032477;28;20280;-78
2022/02/22 00:05:29;;;;;;;0.30;0.20;;;;;;;7.96;63.34;98418.97;5032756;28;20236;-77
2022/02/22 00:08:09;;;;;;;0.10;0.10;;;;;;;7.93;63.21;98414.06;5034089;28;20210;-80
2022/02/22 00:10:40;;;;;;;0.20;0.20;;;;;;;7.86;63.95;98425.91;5018498;28;20321;-80
2022/02/22 00:13:09;;;;;;;0.23;0.20;;;;;;;7.87;64.59;98423.03;5017831;28;20226;-79
2022/02/22 00:15:37;;;;;;;0.20;0.10;;;;;;;7.84;65.57;98417.31;5027924;28;20295;-80
2022/02/22 00:18:06;;;;;;;0.20;0.20;;;;;;;7.76;65.86;98418.47;5031581;28;20203;-80
2022/02/22 00:20:32;;;;;;;0.20;0.20;;;;;;;7.67;66.56;98419.84;5021958;28;20191;-80
2022/02/22 00:23:01;;;;;;;0.40;0.20;;;;;;;7.65;67.52;98431.81;5026967;28;20254;-81
2022/02/22 00:25:29;;;;;;;1.27;0.20;;;;;;;7.62;67.01;98422.41;5032501;28;20253;-80
2022/02/22 00:27:56;;;;;;;0.20;0.20;;;;;;;7.61;66.66;98436.75;5034621;28;20206;-80
2022/02/22 00:30:24;;;;;;;0.13;0.13;;;;;;;7.53;67.62;98423.78;5031427;28;20235;-80
2022/02/22 00:32:52;;;;;;;0.20;0.20;;;;;;;7.52;67.80;98436.28;5025785;28;20295;-79
2022/02/22 00:35:19;;;;;;;0.50;0.20;;;;;;;7.49;68.33;98439.41;5035081;28;20206;-79
2022/02/22 00:37:49;;;;;;;0.20;0.20;;;;;;;7.36;69.22;98436.97;5034171;28;20230;-80
2022/02/22 00:40:23;;;;;;;0.20;0.20;;;;;;;7.46;69.17;98453.22;5027907;28;20238;-77
2022/02/22 00:42:53;;;;;;;0.30;0.30;;;;;;;7.38;69.50;98453.50;5022488;28;20254;-76
2022/02/22 00:45:23;;;;;;;0.10;0.10;;;;;;;7.41;69.63;98461.06;5033306;28;20235;-78
2022/02/22 00:47:51;;;;;;;0.10;0.10;;;;;;;7.51;68.69;98469.31;5025480;28;20231;-75
2022/02/22 00:50:18;;;;;;;0.20;0.20;;;;;;;7.44;69.32;98463.28;5026012;28;20693;-74
2022/02/22 00:52:56;;;;;;;0.20;0.20;;;;;;;7.38;69.68;98482.00;5001390;28;20284;-73
2022/02/22 00:55:23;;;;;;;0.30;0.20;;;;;;;7.38;70.32;98490.00;5002113;28;20657;-73
2022/02/22 00:57:54;;;;;;;0.20;0.20;;;;;;;7.33;70.44;98508.53;5021692;28;20679;-73
2022/02/22 01:00:21;;;;;;;0.20;0.20;;;;;;;7.21;71.84;98503.16;5019228;28;20223;-74
2022/02/22 01:02:48;;;;;;;0.20;0.20;;;;;;;7.40;70.80;98509.25;5025033;28;20257;-74
2022/02/22 01:05:16;;;;;;;0.10;0.10;;;;;;;7.40;70.95;98517.25;5016728;28;20327;-74
2022/02/22 01:07:42;;;;;;;0.20;0.20;;;;;;;7.37;71.67;98518.50;5017605;28;20230;-73
2022/02/22 01:10:18;;;;;;;0.20;0.20;;;;;;;7.42;71.43;98531.16;5020246;28;20214;-73
2022/02/22 01:12:47;;;;;;;0.20;0.20;;;;;;;7.39;72.39;98544.94;5025836;28;20226;-76
2022/02/22 01:15:18;;;;;;;0.30;0.17;;;;;;;7.40;71.70;98543.91;5033963;23;20253;-73
2022/02/22 01:17:55;;;;;;;0.20;0.20;;;;;;;7.45;71.98;98544.03;5037207;28;20222;-73
2022/02/22 01:20:25;;;;;;;0.17;0.17;;;;;;;7.42;71.50;98544.47;5044679;28;20508;-73
2022/02/22 01:23:00;;;;;;;0.10;0.10;;;;;;;7.41;71.69;98542.88;5075984;23;20249;-73
2022/02/22 01:25:30;;;;;;;0.33;0.20;;;;;;;7.30;72.70;98552.44;5073357;28;20217;-74
2022/02/22 01:28:04;;;;;;;0.20;0.20;;;;;;;7.33;73.21;98557.28;5061386;28;20248;-73
2022/02/22 01:30:32;;;;;;;0.17;0.17;;;;;;;7.32;73.60;98550.38;5075288;23;20229;-72
2022/02/22 01:33:02;;;;;;;0.20;0.20;;;;;;;7.35;72.66;98555.22;5054562;28;20225;-74
2022/02/22 01:35:30;;;;;;;0.57;0.30;;;;;;;7.36;72.44;98564.03;5043782;28;20589;-73
2022/02/22 01:38:00;;;;;;;0.50;0.30;;;;;;;7.32;75.37;98581.53;5065961;28;20643;-73
2022/02/22 01:40:27;;;;;;;0.30;0.30;;;;;;;7.28;81.02;98585.69;5058521;28;20606;-75
2022/02/22 01:42:57;;;;;;;0.60;0.33;;;;;;;7.07;89.48;98584.25;5061722;28;20237;-72
2022/02/22 01:45:25;;;;;;;0.60;0.30;;;;;;;7.84;100.00;98601.31;5061335;28;20225;-74
2022/02/22 01:48:03;;;;;;;0.40;0.30;;;;;;;8.01;100.00;98609.50;5058205;28;20655;-73
2022/02/22 01:50:32;;;;;;;0.57;0.30;;;;;;;8.07;100.00;98613.94;5068816;28;20236;-74
2022/02/22 01:53:09;;;;;;;0.77;0.40;;;;;;;7.36;100.00;98606.69;5083998;23;20227;-75
2022/02/22 01:55:38;;;;;;;0.30;0.30;;;;;;;7.29;100.00;98617.41;5047228;28;20221;-79
2022/02/22 01:58:07;;;;;;;0.40;0.40;;;;;;;7.12;100.00;98628.88;5059840;28;20328;-78
2022/02/22 02:00:38;;;;;;;0.90;0.40;;;;;;;6.77;100.00;98626.75;5058098;28;20228;-79
2022/02/22 02:03:07;;;;;;;0.30;0.30;;;;;;;6.69;100.00;98627.03;5065890;28;20264;-78
2022/02/22 02:05:36;;;;;;;0.40;0.40;;;;;;;6.49;100.00;98631.72;5065889;28;20232;-78
2022/02/22 02:08:04;;;;;;;0.43;0.40;;;;;;;6.54;100.00;98639.88;5059892;28;20229;-74
2022/02/22 02:10:32;;;;;;;0.73;0.40;;;;;;;6.59;100.00;98640.84;5062949;28;20229;-75
2022/02/22 02:12:59;;;;;;;0.97;0.47;;;;;;;6.63;100.00;98642.03;5060044;28;20231;-79
2022/02/22 02:15:26;;;;;;;0.40;0.40;;;;;;;6.68;100.00;98638.72;5060738;28;20210;-76
2022/02/22 02:17:55;;;;;;;0.90;0.50;;;;;;;6.67;100.00;98646.94;5062443;28;20240;-77
2022/02/22 02:20:24;;;;;;;0.90;0.50;;;;;;;6.76;100.00;98654.44;5050186;28;20325;-74
2022/02/22 02:22:51;;;;;;;0.90;0.40;;;;;;;6.71;100.00;98650.78;5063394;28;20228;-76
2022/02/22 02:25:20;;;;;;;1.43;0.53;;;;;;;6.68;100.00;98643.22;5062048;28;20255;-76
2022/02/22 02:27:47;;;;;;;0.47;0.40;;;;;;;6.77;100.00;98647.25;5067399;28;20217;-76
2022/02/22 02:30:24;;;;;;;1.60;0.70;;;;;;;6.85;96.56;98634.47;5063337;28;20235;-73
2022/02/22 02:32:51;;;;;;;1.40;0.60;;;;;;;6.84;94.95;98640.03;5056787;28;20251;-75
2022/02/22 02:35:20;;;;;;;1.17;0.60;;;;;;;6.86;92.98;98657.38;5064398;28;20729;-79
2022/02/22 02:37:49;;;;;;;0.63;0.50;;;;;;;6.93;92.59;98657.34;5062502;28;20213;-74
2022/02/22 02:40:40;;;;;;;0.70;0.50;;;;;;;6.99;89.62;98657.28;5065277;28;20220;-74
2022/02/22 02:43:09;;;;;;;0.67;0.50;;;;;;;7.05;88.37;98672.38;5067254;28;20240;-76
2022/02/22 02:45:39;;;;;;;1.63;0.53;;;;;;;7.00;88.55;98664.22;5068290;28;20284;-74
2022/02/22 02:48:10;;;;;;;2.00;0.50;;;;;;;6.88;90.47;98665.16;5064883;28;20241;-73
2022/02/22 02:50:39;;;;;;;0.43;0.43;;;;;;;6.84;91.63;98659.47;5055747;28;20193;-73
2022/02/22 02:53:07;;;;;;;1.90;0.50;;;;;;;6.81;90.70;98662.56;5063793;28;20253;-76
2022/02/22 02:55:37;;;;;;;0.50;0.50;;;;;;;6.80;89.54;98666.28;5048350;28;20229;-76
2022/02/22 02:58:11;;;;;;;0.53;0.47;;;;;;;6.79;88.44;98679.78;5068125;28;20245;-77
2022/02/22 03:00:51;;;;;;;0.50;0.50;;;;;;;5.87;98.15;98678.59;5008169;28;20226;-74
2022/02/22 03:03:19;;;;;;;0.70;0.60;;;;;;;5.74;100.00;98689.22;5015057;28;20255;-73
2022/02/22 03:05:47;;;;;;;1.07;0.40;;;;;;;5.68;99.45;98687.44;5012022;28;20214;-75
2022/02/22 03:08:15;;;;;;;0.57;0.57;;;;;;;5.78;97.62;98677.19;5006147;28;20224;-73
2022/02/22 03:10:42;;;;;;;0.60;0.50;;;;;;;5.60;100.00;98696.44;5006255;28;20231;-73
2022/02/22 03:13:12;;;;;;;0.60;0.50;;;;;;;5.73;98.91;98699.06;5006622;28;20647;-74
2022/02/22 03:15:41;;;;;;;0.50;0.50;;;;;;;5.83;97.64;98706.59;5005797;28;20247;-75
2022/02/22 03:18:14;;;;;;;1.57;0.90;;;;;;;5.81;97.49;98702.50;5003665;28;20744;-74
2022/02/22 03:20:43;;;;;;;1.43;0.63;;;;;;;5.73;100.00;98706.22;5006506;28;20215;-74
2022/02/22 03:23:19;;;;;;;0.70;0.60;;;;;;;5.72;99.90;98713.38;4995973;28;20236;-73
2022/02/22 03:25:48;;;;;;;0.60;0.60;;;;;;;5.57;100.00;98715.47;5006258;28;20448;-77
2022/02/22 03:28:17;;;;;;;0.43;0.40;;;;;;;5.50;100.00;98712.03;5004269;28;20568;-74
2022/02/22 03:30:47;;;;;;;1.27;0.60;;;;;;;5.48;100.00;98710.59;5008632;28;20219;-75
2022/02/22 03:33:14;;;;;;;0.50;0.50;;;;;;;5.42;100.00;98714.09;5005347;28;20254;-75
2022/02/22 03:35:43;;;;;;;0.97;0.50;;;;;;;5.45;100.00;98711.03;5003182;28;20235;-73
2022/02/22 03:38:14;;;;;;;0.50;0.47;;;;;;;5.50;100.00;98703.25;5007976;28;20219;-75
2022/02/22 03:40:43;;;;;;;0.57;0.50;;;;;;;5.44;100.00;98715.53;5009595;28;20226;-74
2022/02/22 03:43:17;;;;;;;0.50;0.50;;;;;;;5.38;100.00;98718.19;5021445;28;20285;-76
2022/02/22 03:45:48;;;;;;;0.80;0.60;;;;;;;5.35;100.00;98723.91;5009059;28;20234;-73
2022/02/22 03:48:22;;;;;;;1.23;0.50;;;;;;;5.37;100.00;98716.53;4994902;28;20346;-76
2022/02/22 03:50:50;;;;;;;0.40;0.40;;;;;;;5.32;99.96;98728.59;5006891;28;20293;-73
2022/02/22 03:53:17;;;;;;;0.60;0.60;;;;;;;5.27;98.60;98736.38;5022547;28;20239;-76
2022/02/22 03:55:50;;;;;;;1.10;0.60;;;;;;;5.29;98.26;98746.81;5004029;28;20256;-74
2022/02/22 03:58:19;;;;;;;1.30;0.97;;;;;;;5.16;99.42;98760.94;4999179;28;20222;-73
2022/02/22 04:00:49;;;;;;;1.00;0.70;;;;;;;5.19;100.00;98759.69;4995377;28;20223;-73
2022/02/22 04:03:19;;;;;;;1.07;0.63;;;;;;;5.17;100.00;98759.09;4988497;28;20242;-79
2022/02/22 04:05:49;;;;;;;1.23;0.73;;;;;;;5.19;100.00;98767.66;4999431;28;20271;-73
2022/02/22 04:08:17;;;;;;;0.87;0.60;;;;;;;5.19;100.00;98759.69;4991714;28;20234;-75
2022/02/22 04:10:45;;;;;;;0.50;0.50;;;;;;;5.17;100.00;98765.22;4992487;28;20231;-74
2022/02/22 04:13:15;;;;;;;1.00;0.50;;;;;;;5.14;100.00;98767.44;5000983;28;20238;-73
2022/02/22 04:15:42;;;;;;;0.93;0.70;;;;;;;5.12;100.00;98769.50;5008166;28;20231;-73
2022/02/22 04:18:10;;;;;;;1.50;0.60;;;;;;;5.08;100.00;98766.47;4993281;28;20235;-76
2022/02/22 04:20:45;;;;;;;1.80;0.80;;;;;;;5.03;100.00;98770.75;4990350;28;20247;-75
2022/02/22 04:23:12;;;;;;;0.67;0.60;;;;;;;5.04;100.00;98775.81;4995677;28;20593;-73
2022/02/22 04:25:41;;;;;;;0.93;0.53;;;;;;;5.06;100.00;98763.19;4994614;28;20196;-76
2022/02/22 04:28:08;;;;;;;1.73;0.83;;;;;;;5.10;100.00;98767.06;5007511;28;20231;-76
2022/02/22 04:30:37;;;;;;;0.73;0.50;;;;;;;5.09;100.00;98769.91;4992275;28;20669;-74
2022/02/22 04:33:12;;;;;;;1.27;0.67;;;;;;;5.02;100.00;98758.47;4990642;28;20227;-73
2022/02/22 04:35:40;;;;;;;1.17;0.67;;;;;;;5.00;100.00;98771.13;4993957;28;20224;-74
2022/02/22 04:38:08;;;;;;;1.07;0.70;;;;;;;4.90;100.00;98774.19;4992040;28;20296;-74
2022/02/22 04:40:35;;;;;;;1.20;0.70;;;;;;;4.93;100.00;98776.47;4999776;28;20281;-76
2022/02/22 04:43:07;;;;;;;1.60;0.70;;;;;;;4.96;100.00;98777.88;4991425;28;20232;-78
2022/02/22 04:45:35;;;;;;;1.93;0.60;;;;;;;4.88;100.00;98784.22;4996968;28;20240;-76
2022/02/22 04:48:04;;;;;;;1.13;0.60;;;;;;;4.87;100.00;98782.56;4990548;28;20535;-73
2022/02/22 04:50:32;;;;;;;1.73;0.67;;;;;;;4.98;100.00;98800.56;4992290;28;20258;-74
2022/02/22 04:52:59;;;;;;;1.33;0.70;;;;;;;5.02;100.00;98801.78;4976792;28;20310;-74
2022/02/22 04:55:28;;;;;;;1.73;0.60;;;;;;;5.00;100.00;98795.84;4998880;28;20227;-77
2022/02/22 04:57:58;;;;;;;1.07;0.67;;;;;;;4.96;100.00;98810.56;4994962;28;20295;-73
2022/02/22 05:00:25;;;;;;;1.47;0.57;;;;;;;4.94;100.00;98809.13;4999681;28;20238;-77
2022/02/22 05:02:55;;;;;;;2.17;1.00;;;;;;;5.00;98.53;98818.91;4992649;28;20524;-76
2022/02/22 05:05:24;;;;;;;2.00;0.60;;;;;;;5.09;97.29;98829.13;4993913;28;20308;-73
2022/02/22 05:07:56;;;;;;;1.63;0.77;;;;;;;5.14;97.19;98834.66;4992141;28;20220;-76
2022/02/22 05:10:25;;;;;;;1.30;0.80;;;;;;;5.16;96.58;98840.59;4988545;28;20243;-75
2022/02/22 05:12:55;;;;;;;2.40;0.83;;;;;;;5.11;98.16;98843.03;4989785;28;20228;-78
2022/02/22 05:15:24;;;;;;;0.67;0.60;;;;;;;5.06;98.66;98848.13;5008731;28;20243;-75
2022/02/22 05:17:51;;;;;;;1.33;0.80;;;;;;;5.10;99.22;98852.03;5011099;28;20252;-74
2022/02/22 05:20:24;;;;;;;1.37;0.77;;;;;;;5.25;97.07;98852.66;4991516;28;20252;-77
2022/02/22 05:22:55;;;;;;;1.23;0.80;;;;;;;5.35;96.79;98862.03;4988101;28;20230;-73
2022/02/22 05:25:23;;;;;;;1.53;0.80;;;;;;;5.32;97.87;98864.06;4974781;28;20232;-76
2022/02/22 05:27:50;;;;;;;1.53;0.80;;;;;;;5.39;98.82;98871.22;5009354;28;20232;-74
2022/02/22 05:30:28;;;;;;;0.93;0.70;;;;;;;5.36;99.93;98879.63;4992695;28;20234;-75
2022/02/22 05:32:55;;;;;;;1.23;0.70;;;;;;;5.42;98.18;98884.91;4988233;28;20292;-74
2022/02/22 05:35:25;;;;;;;2.63;0.80;;;;;;;5.52;97.00;98890.66;4997604;28;20251;-76
2022/02/22 05:37:52;;;;;;;1.80;0.60;;;;;;;5.60;96.09;98897.59;5009422;28;20219;-75
2022/02/22 05:40:19;;;;;;;0.73;0.53;;;;;;;5.57;97.43;98895.34;4994665;28;20228;-76
2022/02/22 05:42:46;;;;;;;1.57;0.60;;;;;;;5.56;97.29;98891.03;4999059;28;20224;-73
2022/02/22 05:45:15;;;;;;;1.43;0.80;;;;;;;5.43;99.73;98902.50;5040737;22;20226;-76
2022/02/22 05:47:43;;;;;;;1.03;0.80;;;;;;;5.29;100.00;98901.69;5038880;28;20234;-73
2022/02/22 05:50:17;;;;;;;1.20;0.73;;;;;;;5.24;100.00;98917.41;5015120;28;20234;-75
2022/02/22 05:52:46;;;;;;;1.33;0.60;;;;;;;5.23;100.00;98922.91;5010039;28;20645;-73
2022/02/22 05:55:13;;;;;;;1.23;0.70;;;;;;;5.15;100.00;98923.09;5018015;28;20286;-74
2022/02/22 05:57:40;;;;;;;1.40;0.77;;;;;;;5.17;100.00;98924.56;5019200;28;20246;-73
2022/02/22 06:00:09;;;;;;;0.77;0.77;;;;;;;5.22;100.00;98927.44;5004964;28;20716;-74
2022/02/22 06:02:39;;;;;;;0.80;0.67;;;;;;;5.15;100.00;98931.88;5015319;28;20281;-74
2022/02/22 06:05:11;;;;;;;0.83;0.70;;;;;;;5.05;100.00;98933.28;5014276;28;20630;-73
2022/02/22 06:07:38;;;;;;;0.97;0.80;;;;;;;5.09;100.00;98938.00;5010927;28;20250;-73
2022/02/22 06:10:06;;;;;;;1.10;0.77;;;;;;;5.15;100.00;98947.81;5039636;28;20230;-76
2022/02/22 06:12:33;;;;;;;0.83;0.57;;;;;;;5.33;100.00;98956.03;5020554;28;20270;-73
2022/02/22 06:15:06;;;;;;;0.90;0.70;;;;;;;5.46;100.00;98960.53;4999054;28;20271;-73
2022/02/22 06:17:42;;;;;;;2.30;0.70;;;;;;;5.58;100.00;98968.72;4999692;28;20691;-73
2022/02/22 06:20:13;;;;;;;1.23;0.67;;;;;;;5.81;100.00;98965.66;4999668;28;20226;-74
2022/02/22 06:22:40;;;;;;;0.60;0.60;;;;;;;5.85;100.00;98974.88;5017321;28;20262;-73
2022/02/22 06:25:10;;;;;;;0.60;0.60;;;;;;;5.95;100.00;98970.81;4990009;28;20251;-74
2022/02/22 06:27:48;;;;;;;1.23;0.60;;;;;;;6.05;100.00;98979.19;5016493;28;20242;-73
2022/02/22 06:30:16;;;;;;;0.60;0.60;;;;;;;6.26;96.45;98982.63;5016277;28;20246;-74
2022/02/22 06:32:43;;;;;;;0.50;0.50;;;;;;;6.38;93.31;98986.28;5019318;28;20211;-75
2022/02/22 06:35:11;;;;;;;0.60;0.60;;;;;;;6.58;91.71;98974.56;5018246;28;20291;-76
2022/02/22 06:37:41;;;;;;;0.57;0.33;;;;;;;6.67;91.06;98985.81;5000744;28;20238;-76
2022/02/22 06:40:09;;;;;;;1.20;0.53;;;;;;;6.78;86.77;98993.13;5017287;28;20230;-74
2022/02/22 06:42:37;;;;;;;0.53;0.50;;;;;;;6.89;85.50;99002.31;5023592;28;20222;-75
2022/02/22 06:45:09;;;;;;;1.20;0.57;;;;;;;6.97;83.73;98994.91;5021756;28;20238;-74
2022/02/22 06:47:39;;;;;;;0.80;0.70;;;;;;;6.96;83.52;99003.09;5025533;28;20226;-74
2022/02/22 06:50:10;;;;;;;2.67;0.70;;;;;;;7.02;81.02;99005.75;5025327;28;20293;-74
2022/02/22 06:52:39;;;;;;;0.77;0.50;;;;;;;7.06;80.81;99000.81;5012053;28;20287;-76
2022/02/22 06:55:11;;;;;;;0.97;0.60;;;;;;;7.07;81.30;99011.25;5002428;28;20233;-74
2022/02/22 06:57:40;;;;;;;0.77;0.60;;;;;;;7.01;82.30;99017.41;5006457;28;20226;-76
2022/02/22 07:00:13;;;;;;;0.77;0.53;;;;;;;7.00;80.31;99026.44;5012933;28;20237;-74
2022/02/22 07:02:44;;;;;;;1.37;0.80;;;;;;;7.08;80.55;99036.88;5031640;28;20319;-75
2022/02/22 07:05:12;;;;;;;0.93;0.50;;;;;;;7.16;79.43;99032.31;5029215;28;20277;-74
2022/02/22 07:07:46;;;;;;;0.67;0.50;;;;;;;7.13;80.03;99032.75;5018283;28;20225;-75
2022/02/22 07:10:14;;;;;;;0.80;0.60;;;;;;;7.20;77.98;99039.66;5034290;28;20232;-75
2022/02/22 07:12:43;;;;;;;0.87;0.50;;;;;;;7.26;77.56;99030.84;5036662;28;20622;-77
2022/02/22 07:15:11;;;;;;;2.60;0.70;;;;;;;7.32;74.87;99045.16;5018724;28;20297;-74
2022/02/22 07:18:04;;;;;;;0.93;0.50;;;;;;;7.35;75.33;99044.72;5021800;28;20225;-75
2022/02/22 07:20:36;;;;;;;1.27;0.53;;;;;;;7.41;74.11;99059.88;5039009;28;20231;-74
2022/02/22 07:23:05;;;;;;;1.50;0.60;;;;;;;7.58;73.05;99053.00;5037031;28;20222;-74
2022/02/22 07:25:33;;;;;;;1.27;0.70;;;;;;;7.64;70.93;99062.00;4995875;28;20249;-72
2022/02/22 07:28:01;;;;;;;0.50;0.50;;;;;;;7.74;71.68;99078.34;5010993;28;20218;-73
2022/02/22 07:30:32;;;;;;;1.07;0.73;;;;;;;7.79;71.67;99068.66;5011972;28;20238;-73
2022/02/22 07:33:02;;;;;;;1.50;0.70;;;;;;;7.89;72.88;99062.84;5038257;28;20219;-73
2022/02/22 07:35:31;;;;;;;0.97;0.57;;;;;;;8.04;69.49;99075.88;5013507;28;20261;-74
2022/02/22 07:38:00;;;;;;;1.53;0.70;;;;;;;8.16;69.81;99085.66;5041352;28;20222;-76
2022/02/22 07:40:32;;;;;;;0.97;0.77;;;;;;;8.17;69.01;99089.94;5033258;28;20237;-77
2022/02/22 07:43:01;;;;;;;0.67;0.50;;;;;;;8.35;68.71;99084.69;5042249;28;20286;-73
2022/02/22 07:45:41;;;;;;;1.70;0.60;;;;;;;8.45;66.66;99086.03;5039479;28;20257;-76
2022/02/22 07:48:10;;;;;;;2.30;0.73;;;;;;;8.50;66.54;99100.38;5015284;28;20237;-76
2022/02/22 07:50:39;;;;;;;2.17;0.70;;;;;;;8.42;66.15;99095.31;5041984;28;20269;-75
2022/02/22 07:53:24;;;;;;;1.50;0.60;;;;;;;8.55;65.22;99103.19;5026915;28;20214;-74
2022/02/22 07:56:00;;;;;;;0.93;0.50;;;;;;;8.63;65.44;99102.13;5054254;23;20229;-73
2022/02/22 07:58:39;;;;;;;1.03;0.63;;;;;;;8.61;64.24;99102.34;5032412;28;20238;-73
2022/02/22 08:01:12;;;;;;;1.50;0.60;;;;;;;8.71;64.35;99104.50;5065456;23;20226;-74
2022/02/22 08:04:01;;;;;;;0.90;0.50;;;;;;;8.63;64.75;99124.28;5044776;23;20253;-79
2022/02/22 08:06:35;;;;;;;7.87;1.43;;;;;;;8.64;64.45;99117.09;5041956;28;20195;-76
2022/02/22 08:09:20;;;;;;;1.47;0.70;;;;;;;8.73;64.87;99121.09;5049376;28;20259;-74
2022/02/22 08:11:56;;;;;;;1.63;0.97;;;;;;;8.94;64.34;99133.25;5051909;28;20255;-77
2022/02/22 08:14:28;;;;;;;0.90;0.60;;;;;;;9.03;64.04;99139.94;5019791;28;20233;-74
2022/02/22 08:17:08;;;;;;;1.23;0.70;;;;;;;8.98;63.45;99148.63;5049038;28;20225;-78
2022/02/22 08:19:40;;;;;;;1.03;0.60;;;;;;;8.95;65.38;99157.09;5051572;28;20237;-73
2022/02/22 08:22:16;;;;;;;1.83;0.70;;;;;;;8.95;66.08;99161.59;5037443;28;20210;-75
2022/02/22 08:24:48;;;;;;;2.07;0.70;;;;;;;8.91;67.71;99171.94;5043849;28;20221;-73
2022/02/22 08:27:19;;;;;;;1.50;0.70;;;;;;;9.03;69.69;99167.47;5046774;28;20225;-73
2022/02/22 08:30:15;;;;;;;1.47;0.80;;;;;;;10.47;69.54;99170.19;5050146;28;20214;-76
2022/02/22 08:32:43;;;;;;;2.93;1.00;;;;;;;9.53;67.87;99191.41;5046807;28;20233;-76
2022/02/22 08:35:14;;;;;;;2.03;0.73;;;;;;;9.61;66.49;99186.56;5038444;28;20198;-80
2022/02/22 08:40:30;;;;;;;1.30;0.63;;;;;;;9.72;67.53;99191.19;5057305;28;20251;-81
2022/02/22 08:43:15;;;;;;;2.13;0.70;;;;;;;9.97;67.12;99187.59;5071913;22;20229;-76
2022/02/22 08:45:48;;;;;;;2.87;0.80;;;;;;;9.98;65.76;99192.72;5078148;22;20230;-76
2022/02/22 08:48:18;;;;;;;1.70;0.60;;;;;;;9.86;63.77;99186.47;5070679;28;20225;-80
2022/02/22 08:50:47;;;;;;;1.40;0.60;;;;;;;10.13;63.72;99198.47;5073655;28;20252;-78
2022/02/22 08:53:19;;;;;;;1.17;0.50;;;;;;;10.24;61.56;99201.44;5076148;28;20272;-75
2022/02/22 08:55:48;;;;;;;1.33;0.43;;;;;;;10.03;60.64;99198.19;5058586;23;20226;-76
2022/02/22 08:58:17;;;;;;;0.93;0.50;;;;;;;9.82;60.34;99216.59;5160138;22;20240;-75
2022/02/22 09:00:58;;;;;;;1.07;0.50;;;;;;;9.53;60.98;99216.31;5049444;23;20334;-74
2022/02/22 09:03:47;;;;;;;0.40;0.40;;;;;;;9.73;61.77;99214.22;5056968;28;20699;-74
2022/02/22 09:06:41;;;;;;;1.33;0.60;;;;;;;9.90;62.05;99221.63;5050013;28;20234;-74
2022/02/22 09:09:29;;;;;;;1.03;0.50;;;;;;;9.95;61.65;99227.94;5061886;28;20288;-73
2022/02/22 09:12:08;;;;;;;1.73;0.47;;;;;;;9.82;61.69;99238.00;5057785;23;20256;-74
2022/02/22 09:14:36;;;;;;;1.00;0.60;;;;;;;9.70;61.49;99230.69;5032331;28;20286;-74
2022/02/22 09:17:23;;;;;;;1.07;0.67;;;;;;;9.90;60.19;99235.00;5034492;28;20213;-73
2022/02/22 09:19:58;;;;;;;0.67;0.47;;;;;;;10.22;59.52;99235.69;5060107;22;20229;-75
2022/02/22 09:22:48;;;;;;;2.60;0.60;;;;;;;9.87;59.72;99254.19;5051899;23;20234;-74
2022/02/22 09:25:39;;;;;;;2.00;0.40;;;;;;;9.99;60.25;99242.50;5049473;28;20246;-74
2022/02/22 09:28:24;;;;;;;0.67;0.40;;;;;;;9.94;60.89;99249.56;5012024;28;20193;-73
2022/02/22 09:30:54;;;;;;;0.83;0.53;;;;;;;10.03;60.51;99254.38;5045960;28;20247;-76
2022/02/22 09:33:38;;;;;;;1.13;0.50;;;;;;;10.38;59.19;99253.78;5122149;23;20293;-73
2022/02/22 09:36:12;;;;;;;0.90;0.43;;;;;;;10.52;58.30;99263.25;5157588;22;20260;-76
2022/02/22 09:38:59;;;;;;;1.97;0.60;;;;;;;10.50;58.01;99263.47;5063844;28;20985;-72
2022/02/22 09:41:28;;;;;;;0.87;0.53;;;;;;;10.52;58.14;99263.25;5066046;22;20230;-73
2022/02/22 09:43:59;;;;;;;0.97;0.50;;;;;;;10.58;58.14;99267.72;5066289;28;20281;-74
2022/02/22 09:46:30;;;;;;;0.90;0.60;;;;;;;10.23;58.57;99285.47;5053575;28;20227;-75
2022/02/22 09:49:09;;;;;;;0.73;0.50;;;;;;;10.00;59.50;99280.78;5061675;23;20241;-74
2022/02/22 09:51:38;;;;;;;1.27;0.60;;;;;;;9.98;60.01;99291.75;5047194;28;20230;-73
2022/02/22 09:54:06;;;;;;;1.87;0.70;;;;;;;9.70;60.15;99294.13;5051426;28;20227;-73
2022/02/22 09:56:44;;;;;;;0.60;0.50;;;;;;;9.47;63.86;99300.06;5046409;28;20198;-75
2022/02/22 09:59:21;;;;;;;3.33;0.80;;;;;;;9.71;65.64;99293.06;5092315;23;20237;-73
2022/02/22 10:01:52;;;;;;;1.13;0.60;;;;;;;9.66;64.17;99299.06;5019322;28;20250;-74
2022/02/22 10:04:22;;;;;;;0.80;0.40;;;;;;;9.43;64.20;99309.59;5020536;28;20191;-73
2022/02/22 10:07:03;;;;;;;1.07;0.50;;;;;;;9.55;64.35;99309.69;5008121;28;20277;-73
2022/02/22 10:09:32;;;;;;;1.17;0.60;;;;;;;9.76;64.85;99311.94;5004267;28;20237;-73
2022/02/22 10:12:06;;;;;;;0.77;0.50;;;;;;;9.87;64.08;99311.22;5026723;28;20230;-73
2022/02/22 10:14:38;;;;;;;1.53;0.50;;;;;;;9.81;63.55;99313.94;5048004;23;20229;-73
2022/02/22 10:17:15;;;;;;;0.40;0.40;;;;;;;9.86;59.22;99314.91;5055599;28;20631;-73
2022/02/22 10:20:03;;;;;;;0.37;0.30;;;;;;;9.49;60.64;99302.53;5063044;22;20240;-73
2022/02/22 10:22:46;;;;;;;0.97;0.23;;;;;;;9.48;60.38;99309.75;5064714;28;20303;-73
2022/02/22 10:25:25;;;;;;;2.03;0.50;;;;;;;9.63;62.08;99320.91;5067390;28;20229;-72
2022/02/22 10:28:09;;;;;;;1.07;0.70;;;;;;;9.62;60.14;99305.09;5105577;23;20237;-73
2022/02/22 10:30:53;;;;;;;1.03;0.50;;;;;;;9.93;59.16;99312.19;5068224;28;20231;-75
2022/02/22 10:33:37;;;;;;;1.07;0.50;;;;;;;10.19;56.48;99311.06;5070666;28;20224;-76
2022/02/22 10:36:32;;;;;;;1.30;0.57;;;;;;;10.58;55.79;99322.09;5079076;23;20224;-75
2022/02/22 10:39:13;;;;;;;1.63;0.60;;;;;;;10.63;54.33;99317.94;5079635;28;20227;-74
2022/02/22 10:41:44;;;;;;;3.47;1.03;;;;;;;10.63;54.34;99321.44;5042480;28;20229;-76
2022/02/22 10:44:17;;;;;;;4.83;0.93;;;;;;;10.58;55.79;99332.81;5060405;28;20236;-76
2022/02/22 10:46:51;;;;;;;2.87;1.10;;;;;;;10.53;59.11;99343.41;5056094;23;20224;-75
2022/02/22 10:49:43;;;;;;;3.03;1.30;;;;;;;10.47;60.13;99359.53;5065209;23;20225;-74
2022/02/22 10:52:14;;;;;;;2.83;1.27;;;;;;;9.98;61.95;99347.13;5057701;23;20239;-73
2022/02/22 10:54:52;;;;;;;3.27;1.00;;;;;;;10.17;63.04;99359.50;5055986;28;20225;-73
2022/02/22 10:57:35;;;;;;;3.83;1.30;;;;;;;9.30;68.99;99387.22;5069765;28;20243;-73
2022/02/22 11:00:14;;;;;;;4.87;1.00;;;;;;;9.05;73.79;99379.16;5076526;23;20299;-73
2022/02/22 11:02:49;;;;;;;4.27;1.20;;;;;;;8.87;76.57;99373.75;5091880;28;20228;-73
2022/02/22 11:05:38;;;;;;;3.57;1.30;;;;;;;8.95;77.67;99372.69;5104728;22;20315;-73
2022/02/22 11:08:33;;;;;;;3.47;1.00;;;;;;;8.68;74.26;99374.66;5088238;22;20255;-73
2022/02/22 11:11:39;;;;;;;2.40;0.87;;;;;;;8.45;80.78;99417.06;5159434;23;20264;-73
2022/02/22 11:14:17;;;;;;;1.20;0.80;;;;;;;7.85;91.24;99411.03;5073167;28;20288;-74
2022/02/22 11:16:54;;;;;;;2.50;0.70;;;;;;;7.62;99.50;99416.81;5075870;28;20225;-75
2022/02/22 11:19:26;;;;;;;1.13;0.37;;;;;;;7.24;92.53;99418.41;5077953;28;20198;-75
2022/02/22 11:22:23;;;;;;;2.43;0.50;;;;;;;7.45;83.91;99411.06;5074405;28;20217;-76
2022/02/22 11:25:01;;;;;;;1.50;0.50;;;;;;;8.00;79.48;99403.63;5072693;28;20592;-74
2022/02/22 11:27:38;;;;;;;1.70;0.50;;;;;;;8.25;79.24;99412.63;5071136;28;20258;-76
2022/02/22 11:30:15;;;;;;;1.80;0.50;;;;;;;7.85;73.86;99387.84;5140487;23;20631;-76
2022/02/22 11:33:11;;;;;;;0.70;0.40;;;;;;;7.44;77.11;99389.94;5046245;28;20234;-75
2022/02/22 11:35:54;;;;;;;1.03;0.70;;;;;;;7.25;81.19;99393.41;5042927;28;20258;-74
2022/02/22 11:38:41;;;;;;;1.40;0.63;;;;;;;7.43;82.00;99391.78;5048127;28;20222;-73
2022/02/22 11:41:48;;;;;;;2.67;0.83;;;;;;;7.50;73.87;99387.28;5066025;23;20238;-74
2022/02/22 11:44:26;;;;;;;3.23;0.90;;;;;;;7.50;73.63;99376.63;5072034;28;20304;-73
2022/02/22 11:47:04;;;;;;;2.30;1.00;;;;;;;7.75;73.44;99381.31;5088050;23;20232;-73
2022/02/22 11:49:56;;;;;;;3.63;0.90;;;;;;;7.98;70.04;99379.81;5073116;28;20250;-73
2022/02/22 11:53:04;;;;;;;2.80;0.80;;;;;;;8.02;70.36;99379.44;5083437;28;20287;-73
2022/02/22 11:55:38;;;;;;;1.97;0.83;;;;;;;8.32;70.18;99365.38;5087741;28;20239;-73
2022/02/22 11:58:16;;;;;;;2.50;0.90;;;;;;;8.28;70.32;99390.00;5089082;28;20239;-73
2022/02/22 12:01:00;;;;;;;2.73;0.80;;;;;;;8.47;66.82;99373.13;5094723;22;20213;-73
2022/02/22 12:03:41;;;;;;;3.63;1.17;;;;;;;8.74;65.51;99385.31;5088565;28;20226;-73
2022/02/22 12:06:11;;;;;;;4.57;1.23;;;;;;;8.81;64.01;99374.63;5080346;28;20222;-74
2022/02/22 12:08:51;;;;;;;5.30;1.20;;;;;;;8.93;62.57;99380.09;5082421;28;20224;-74